»·PEaware :: QXE2134 KEAT-KYKM

QXE2134 :: KEAT-KYKM

FLIGHT INFORMATION

Flight Status: Arrived
Operator:
Horizon Air
More flights by this operator :: More flights under this callsign
Pilot: Adlai G. (28854)
Aircraft: DEHAVILLAND DASH 8 400
(DH8D)
More flights by this aircraft type
Origin: KEAT Pangborn Meml
United States
Destination: KYKM Yakima Air Term/Mcallister
United States
More flights between these airports :: More routes between these airports
Route: +QUINT T261 YKM
File this flight plan on PilotEdge
Remarks:
Altitude:
(Current/Filed)
9,000ft
Speed:
(Current/Filed)
350kts
Departed: 05-May-20 05:08 PM
Arrived: 05-May-20 05:29 PM
Distance/Time
Traveled:
52nm/0:20
Distance/Time
To Go:
Arrived

Flight Plot

Page will automatically refresh every two minutes.


Map Options




Map Legend


Flown Route
Filed Route
Departure Airport
Arrival Airport
Navaid (VOR, NDB)
Fix

Horizontal Profiles

Position Reports

Time Latitude Longitude Heading Altitude Ground
Speed
05-May-20 16:33 47.403359 -120.208916 44 1256ft 0kts
05-May-20 16:34 47.403359 -120.208916 44 1256ft 0kts
05-May-20 16:35 47.403359 -120.208916 44 1256ft 0kts
05-May-20 16:36 47.403359 -120.208916 44 1256ft 0kts
05-May-20 16:37 47.403359 -120.208916 44 1256ft 0kts
05-May-20 16:38 47.403359 -120.208916 44 1256ft 0kts
05-May-20 16:39 47.403359 -120.208916 44 1256ft 0kts
05-May-20 16:40 47.403359 -120.208916 44 1256ft 0kts
05-May-20 16:41 47.403359 -120.208916 44 1256ft 0kts
05-May-20 16:42 47.403359 -120.208916 44 1256ft 0kts
05-May-20 16:43 47.403359 -120.208916 44 1256ft 0kts
05-May-20 16:44 47.403359 -120.208916 44 1256ft 0kts
05-May-20 16:45 47.403359 -120.208916 44 1256ft 0kts
05-May-20 16:46 47.403359 -120.208916 44 1256ft 0kts
05-May-20 16:47 47.403359 -120.208916 44 1256ft 0kts
05-May-20 16:48 47.403359 -120.208916 44 1256ft 0kts
05-May-20 16:49 47.403359 -120.208916 44 1256ft 0kts
05-May-20 16:50 47.403359 -120.208916 44 1256ft 0kts
05-May-20 16:51 47.403359 -120.208916 44 1256ft 0kts
05-May-20 16:52 47.403359 -120.208916 44 1256ft 0kts
05-May-20 16:53 47.403359 -120.208916 44 1256ft 0kts
05-May-20 16:54 47.403359 -120.208916 44 1256ft 0kts
05-May-20 16:55 47.403359 -120.208916 44 1256ft 0kts
05-May-20 16:56 47.403359 -120.208916 44 1256ft 0kts
05-May-20 16:58 47.403359 -120.208916 44 1256ft 0kts
05-May-20 16:59 47.403359 -120.208916 44 1256ft 0kts
05-May-20 17:00 47.403359 -120.208916 44 1256ft 0kts
05-May-20 17:01 47.403343 -120.208940 44 1256ft 1kts
05-May-20 17:02 47.402789 -120.209753 44 1256ft 2kts
05-May-20 17:03 47.402722 -120.209850 45 1256ft 0kts
05-May-20 17:04 47.402722 -120.209850 45 1256ft 0kts
05-May-20 17:05 47.402783 -120.209856 341 1256ft 2kts
05-May-20 17:06 47.403917 -120.212885 315 1256ft 15kts
05-May-20 17:07 47.404557 -120.214326 243 1256ft 0kts
05-May-20 17:08 47.402423 -120.212359 135 1256ft 72kts
05-May-20 17:09 47.374456 -120.168362 127 3232ft 183kts
05-May-20 17:10 47.341536 -120.100569 133 6291ft 215kts
05-May-20 17:11 47.295588 -120.038141 140 8784ft 240kts
05-May-20 17:12 47.240667 -119.967318 161 9036ft 274kts
05-May-20 17:13 47.169724 -119.992941 218 9041ft 278kts
05-May-20 17:14 47.116682 -120.073841 226 9051ft 274kts
05-May-20 17:15 47.067085 -120.158720 227 9047ft 273kts
05-May-20 17:16 47.017553 -120.242922 227 9046ft 272kts
05-May-20 17:16 46.976249 -120.312689 226 9046ft 272kts
05-May-20 17:18 46.918058 -120.409404 227 9043ft 271kts
05-May-20 17:18 46.866159 -120.451897 181 8800ft 267kts
05-May-20 17:19 46.792155 -120.449434 181 8009ft 271kts
05-May-20 17:20 46.720377 -120.448299 179 6289ft 251kts
05-May-20 17:22 46.641912 -120.457035 215 5045ft 239kts
05-May-20 17:22 46.628164 -120.527592 286 4988ft 234kts
05-May-20 17:23 46.596136 -120.567358 126 3760ft 219kts
05-May-20 17:24 46.576932 -120.486938 109 3181ft 207kts
05-May-20 17:25 46.554511 -120.438686 208 2540ft 137kts
05-May-20 17:26 46.554087 -120.486005 287 1739ft 129kts
05-May-20 17:27 46.565709 -120.532269 288 1124ft 113kts
05-May-20 17:28 46.568902 -120.542394 18 1102ft 0kts
05-May-20 17:29 46.569644 -120.541207 357 1102ft 8kts
05-May-20 17:30 46.569944 -120.541228 357 1102ft 0kts
05-May-20 17:31 46.569944 -120.541228 357 1102ft 0kts
05-May-20 17:32 46.569944 -120.541228 357 1102ft 0kts
05-May-20 17:33 46.569944 -120.541228 357 1102ft 0kts

Navigation Log

Ident Type
Flight plan parsing failed, navigation log unavailable